sensor_id;sensor_type;location;lat;lon;timestamp;P1;durP1;ratioP1;P2;durP2;ratioP2
54269;SDS011;40181;51.560;13.000;2023-05-02T00:00:57;7.40;;;4.10;;
54269;SDS011;40181;51.560;13.000;2023-05-02T00:03:29;4.40;;;2.58;;
54269;SDS011;40181;51.560;13.000;2023-05-02T00:05:58;5.40;;;3.10;;
54269;SDS011;40181;51.560;13.000;2023-05-02T00:08:27;6.53;;;4.28;;
54269;SDS011;40181;51.560;13.000;2023-05-02T00:10:56;6.10;;;4.00;;
54269;SDS011;40181;51.560;13.000;2023-05-02T00:13:28;5.70;;;3.85;;
54269;SDS011;40181;51.560;13.000;2023-05-02T00:15:57;4.40;;;3.00;;
54269;SDS011;40181;51.560;13.000;2023-05-02T00:18:26;4.03;;;3.42;;
54269;SDS011;40181;51.560;13.000;2023-05-02T00:20:55;6.20;;;4.28;;
54269;SDS011;40181;51.560;13.000;2023-05-02T00:23:24;4.40;;;2.78;;
54269;SDS011;40181;51.560;13.000;2023-05-02T00:25:53;5.72;;;4.35;;
54269;SDS011;40181;51.560;13.000;2023-05-02T00:28:25;5.40;;;4.03;;
54269;SDS011;40181;51.560;13.000;2023-05-02T00:30:54;5.75;;;3.88;;
54269;SDS011;40181;51.560;13.000;2023-05-02T00:33:23;6.50;;;4.22;;
54269;SDS011;40181;51.560;13.000;2023-05-02T00:35:52;12.38;;;3.90;;
54269;SDS011;40181;51.560;13.000;2023-05-02T00:38:21;9.35;;;4.13;;
54269;SDS011;40181;51.560;13.000;2023-05-02T00:40:50;5.10;;;3.13;;
54269;SDS011;40181;51.560;13.000;2023-05-02T00:43:19;6.28;;;4.38;;
54269;SDS011;40181;51.560;13.000;2023-05-02T00:45:51;5.10;;;3.95;;
54269;SDS011;40181;51.560;13.000;2023-05-02T00:48:20;4.68;;;3.20;;
54269;SDS011;40181;51.560;13.000;2023-05-02T00:50:50;4.70;;;3.20;;
54269;SDS011;40181;51.560;13.000;2023-05-02T00:53:19;3.28;;;2.58;;
54269;SDS011;40181;51.560;13.000;2023-05-02T00:55:48;7.13;;;3.38;;
54269;SDS011;40181;51.560;13.000;2023-05-02T00:58:18;5.82;;;3.40;;
54269;SDS011;40181;51.560;13.000;2023-05-02T01:00:55;14.95;;;5.13;;
54269;SDS011;40181;51.560;13.000;2023-05-02T01:03:38;5.28;;;3.53;;
54269;SDS011;40181;51.560;13.000;2023-05-02T01:06:20;5.55;;;3.45;;
54269;SDS011;40181;51.560;13.000;2023-05-02T01:09:00;6.28;;;5.28;;
54269;SDS011;40181;51.560;13.000;2023-05-02T01:11:43;5.13;;;4.07;;
54269;SDS011;40181;51.560;13.000;2023-05-02T01:14:19;5.65;;;4.00;;
54269;SDS011;40181;51.560;13.000;2023-05-02T01:16:52;4.53;;;3.28;;
54269;SDS011;40181;51.560;13.000;2023-05-02T01:19:25;4.43;;;3.45;;
54269;SDS011;40181;51.560;13.000;2023-05-02T01:22:01;4.28;;;3.15;;
54269;SDS011;40181;51.560;13.000;2023-05-02T01:24:36;3.63;;;3.20;;
54269;SDS011;40181;51.560;13.000;2023-05-02T01:27:17;3.15;;;2.38;;
54269;SDS011;40181;51.560;13.000;2023-05-02T01:29:57;5.25;;;4.15;;
54269;SDS011;40181;51.560;13.000;2023-05-02T01:32:30;4.28;;;3.05;;
54269;SDS011;40181;51.560;13.000;2023-05-02T01:35:02;9.00;;;2.97;;
54269;SDS011;40181;51.560;13.000;2023-05-02T01:37:35;6.40;;;3.72;;
54269;SDS011;40181;51.560;13.000;2023-05-02T01:40:06;3.60;;;2.33;;
54269;SDS011;40181;51.560;13.000;2023-05-02T01:42:37;4.35;;;3.17;;
54269;SDS011;40181;51.560;13.000;2023-05-02T01:45:10;2.97;;;2.30;;
54269;SDS011;40181;51.560;13.000;2023-05-02T01:47:40;5.75;;;2.75;;
54269;SDS011;40181;51.560;13.000;2023-05-02T01:50:13;2.83;;;2.40;;
54269;SDS011;40181;51.560;13.000;2023-05-02T01:52:48;5.53;;;3.60;;
54269;SDS011;40181;51.560;13.000;2023-05-02T01:55:20;7.05;;;4.03;;
54269;SDS011;40181;51.560;13.000;2023-05-02T01:57:52;4.03;;;2.97;;
54269;SDS011;40181;51.560;13.000;2023-05-02T02:00:27;3.13;;;2.50;;
54269;SDS011;40181;51.560;13.000;2023-05-02T02:02:57;4.55;;;3.38;;
54269;SDS011;40181;51.560;13.000;2023-05-02T02:05:27;5.70;;;4.40;;
54269;SDS011;40181;51.560;13.000;2023-05-02T02:07:57;4.23;;;3.20;;
54269;SDS011;40181;51.560;13.000;2023-05-02T02:10:26;7.15;;;3.47;;
54269;SDS011;40181;51.560;13.000;2023-05-02T02:13:03;3.90;;;2.90;;
54269;SDS011;40181;51.560;13.000;2023-05-02T02:15:43;6.53;;;2.90;;
54269;SDS011;40181;51.560;13.000;2023-05-02T02:18:17;6.10;;;3.35;;
54269;SDS011;40181;51.560;13.000;2023-05-02T02:20:49;5.38;;;3.15;;
54269;SDS011;40181;51.560;13.000;2023-05-02T02:23:18;4.88;;;3.53;;
54269;SDS011;40181;51.560;13.000;2023-05-02T02:25:51;6.55;;;3.10;;
54269;SDS011;40181;51.560;13.000;2023-05-02T02:28:23;3.75;;;2.47;;
54269;SDS011;40181;51.560;13.000;2023-05-02T02:30:54;4.80;;;3.05;;
54269;SDS011;40181;51.560;13.000;2023-05-02T02:33:24;6.10;;;3.80;;
54269;SDS011;40181;51.560;13.000;2023-05-02T02:36:00;5.88;;;3.05;;
54269;SDS011;40181;51.560;13.000;2023-05-02T02:38:40;4.15;;;2.88;;
54269;SDS011;40181;51.560;13.000;2023-05-02T02:41:15;4.18;;;2.40;;
54269;SDS011;40181;51.560;13.000;2023-05-02T02:43:52;3.53;;;2.78;;
54269;SDS011;40181;51.560;13.000;2023-05-02T02:46:38;3.38;;;1.98;;
54269;SDS011;40181;51.560;13.000;2023-05-02T02:49:17;7.25;;;2.58;;
54269;SDS011;40181;51.560;13.000;2023-05-02T02:52:01;3.10;;;2.35;;
54269;SDS011;40181;51.560;13.000;2023-05-02T02:54:39;2.55;;;1.98;;
54269;SDS011;40181;51.560;13.000;2023-05-02T02:57:17;6.10;;;2.67;;
54269;SDS011;40181;51.560;13.000;2023-05-02T02:59:55;3.10;;;2.20;;
54269;SDS011;40181;51.560;13.000;2023-05-02T03:02:45;3.35;;;2.35;;
54269;SDS011;40181;51.560;13.000;2023-05-02T03:05:15;2.40;;;2.00;;
54269;SDS011;40181;51.560;13.000;2023-05-02T03:07:45;13.43;;;2.60;;
54269;SDS011;40181;51.560;13.000;2023-05-02T03:10:15;3.10;;;2.45;;
54269;SDS011;40181;51.560;13.000;2023-05-02T03:12:44;2.60;;;1.90;;
54269;SDS011;40181;51.560;13.000;2023-05-02T03:15:16;4.45;;;2.47;;
54269;SDS011;40181;51.560;13.000;2023-05-02T03:18:19;3.70;;;2.88;;
54269;SDS011;40181;51.560;13.000;2023-05-02T03:20:48;5.43;;;2.95;;
54269;SDS011;40181;51.560;13.000;2023-05-02T03:23:17;3.47;;;2.58;;
54269;SDS011;40181;51.560;13.000;2023-05-02T03:25:46;3.65;;;2.90;;
54269;SDS011;40181;51.560;13.000;2023-05-02T03:28:16;4.30;;;2.92;;
54269;SDS011;40181;51.560;13.000;2023-05-02T03:30:45;4.43;;;3.15;;
54269;SDS011;40181;51.560;13.000;2023-05-02T03:33:14;6.32;;;2.90;;
54269;SDS011;40181;51.560;13.000;2023-05-02T03:35:47;4.23;;;3.00;;
54269;SDS011;40181;51.560;13.000;2023-05-02T03:38:16;3.83;;;2.50;;
54269;SDS011;40181;51.560;13.000;2023-05-02T03:40:45;3.53;;;2.58;;
54269;SDS011;40181;51.560;13.000;2023-05-02T03:43:14;3.13;;;2.33;;
54269;SDS011;40181;51.560;13.000;2023-05-02T03:45:43;10.73;;;3.05;;
54269;SDS011;40181;51.560;13.000;2023-05-02T03:48:12;3.70;;;2.47;;
54269;SDS011;40181;51.560;13.000;2023-05-02T03:50:41;2.90;;;2.40;;
54269;SDS011;40181;51.560;13.000;2023-05-02T03:53:12;5.45;;;2.15;;
54269;SDS011;40181;51.560;13.000;2023-05-02T03:55:42;4.00;;;2.03;;
54269;SDS011;40181;51.560;13.000;2023-05-02T03:58:12;2.33;;;1.70;;
54269;SDS011;40181;51.560;13.000;2023-05-02T04:00:41;2.55;;;1.77;;
54269;SDS011;40181;51.560;13.000;2023-05-02T04:03:10;1.92;;;1.40;;
54269;SDS011;40181;51.560;13.000;2023-05-02T04:05:39;7.53;;;1.65;;
54269;SDS011;40181;51.560;13.000;2023-05-02T04:08:08;3.45;;;2.20;;
54269;SDS011;40181;51.560;13.000;2023-05-02T04:10:40;3.10;;;1.45;;
54269;SDS011;40181;51.560;13.000;2023-05-02T04:13:09;3.83;;;1.85;;
54269;SDS011;40181;51.560;13.000;2023-05-02T04:15:38;1.92;;;1.55;;
54269;SDS011;40181;51.560;13.000;2023-05-02T04:18:07;2.08;;;1.25;;
54269;SDS011;40181;51.560;13.000;2023-05-02T04:20:36;2.17;;;1.77;;
54269;SDS011;40181;51.560;13.000;2023-05-02T04:23:05;2.08;;;1.30;;
54269;SDS011;40181;51.560;13.000;2023-05-02T04:25:34;4.65;;;1.92;;
54269;SDS011;40181;51.560;13.000;2023-05-02T04:28:06;2.80;;;1.73;;
54269;SDS011;40181;51.560;13.000;2023-05-02T04:30:35;1.75;;;1.40;;
54269;SDS011;40181;51.560;13.000;2023-05-02T04:33:04;2.10;;;1.55;;
54269;SDS011;40181;51.560;13.000;2023-05-02T04:35:33;3.67;;;1.90;;
54269;SDS011;40181;51.560;13.000;2023-05-02T04:38:02;2.10;;;1.52;;
54269;SDS011;40181;51.560;13.000;2023-05-02T04:40:32;2.70;;;1.80;;
54269;SDS011;40181;51.560;13.000;2023-05-02T04:43:01;3.90;;;2.00;;
54269;SDS011;40181;51.560;13.000;2023-05-02T04:45:33;3.50;;;2.08;;
54269;SDS011;40181;51.560;13.000;2023-05-02T04:48:03;2.80;;;1.67;;
54269;SDS011;40181;51.560;13.000;2023-05-02T04:50:32;3.10;;;1.87;;
54269;SDS011;40181;51.560;13.000;2023-05-02T04:53:02;2.22;;;1.52;;
54269;SDS011;40181;51.560;13.000;2023-05-02T04:55:31;1.85;;;1.27;;
54269;SDS011;40181;51.560;13.000;2023-05-02T04:58:00;2.55;;;1.92;;
54269;SDS011;40181;51.560;13.000;2023-05-02T05:00:29;1.55;;;1.20;;
54269;SDS011;40181;51.560;13.000;2023-05-02T05:03:02;7.15;;;1.85;;
54269;SDS011;40181;51.560;13.000;2023-05-02T05:05:31;2.60;;;2.25;;
54269;SDS011;40181;51.560;13.000;2023-05-02T05:08:00;3.55;;;2.20;;
54269;SDS011;40181;51.560;13.000;2023-05-02T05:10:29;6.80;;;2.40;;
54269;SDS011;40181;51.560;13.000;2023-05-02T05:12:58;4.80;;;2.25;;
54269;SDS011;40181;51.560;13.000;2023-05-02T05:15:28;2.58;;;2.13;;
54269;SDS011;40181;51.560;13.000;2023-05-02T05:18:00;3.08;;;2.22;;
54269;SDS011;40181;51.560;13.000;2023-05-02T05:20:29;5.20;;;3.33;;
54269;SDS011;40181;51.560;13.000;2023-05-02T05:22:58;5.22;;;3.25;;
54269;SDS011;40181;51.560;13.000;2023-05-02T05:25:27;4.70;;;3.00;;
54269;SDS011;40181;51.560;13.000;2023-05-02T05:27:56;3.67;;;2.67;;
54269;SDS011;40181;51.560;13.000;2023-05-02T05:30:27;5.47;;;3.17;;
54269;SDS011;40181;51.560;13.000;2023-05-02T05:32:56;2.63;;;2.35;;
54269;SDS011;40181;51.560;13.000;2023-05-02T05:35:28;4.22;;;3.03;;
54269;SDS011;40181;51.560;13.000;2023-05-02T05:37:57;3.40;;;2.70;;
54269;SDS011;40181;51.560;13.000;2023-05-02T05:40:26;4.43;;;3.38;;
54269;SDS011;40181;51.560;13.000;2023-05-02T05:42:55;4.25;;;2.92;;
54269;SDS011;40181;51.560;13.000;2023-05-02T05:45:24;3.80;;;2.60;;
54269;SDS011;40181;51.560;13.000;2023-05-02T05:47:53;3.17;;;2.33;;
54269;SDS011;40181;51.560;13.000;2023-05-02T05:50:25;8.52;;;4.38;;
54269;SDS011;40181;51.560;13.000;2023-05-02T05:52:54;4.30;;;3.08;;
54269;SDS011;40181;51.560;13.000;2023-05-02T05:55:23;5.57;;;4.10;;
54269;SDS011;40181;51.560;13.000;2023-05-02T05:57:55;5.18;;;3.50;;
54269;SDS011;40181;51.560;13.000;2023-05-02T06:00:24;8.88;;;3.83;;
54269;SDS011;40181;51.560;13.000;2023-05-02T06:02:53;4.47;;;2.88;;
54269;SDS011;40181;51.560;13.000;2023-05-02T06:05:25;6.75;;;3.28;;
54269;SDS011;40181;51.560;13.000;2023-05-02T06:07:54;6.32;;;3.10;;
54269;SDS011;40181;51.560;13.000;2023-05-02T06:10:23;4.10;;;2.85;;
54269;SDS011;40181;51.560;13.000;2023-05-02T06:12:52;4.22;;;2.95;;
54269;SDS011;40181;51.560;13.000;2023-05-02T06:18:33;4.32;;;2.97;;
54269;SDS011;40181;51.560;13.000;2023-05-02T06:21:05;6.93;;;3.53;;
54269;SDS011;40181;51.560;13.000;2023-05-02T06:23:35;3.40;;;2.25;;
54269;SDS011;40181;51.560;13.000;2023-05-02T06:26:05;3.20;;;2.50;;
54269;SDS011;40181;51.560;13.000;2023-05-02T06:28:34;5.57;;;2.80;;
54269;SDS011;40181;51.560;13.000;2023-05-02T06:31:03;2.72;;;1.85;;
54269;SDS011;40181;51.560;13.000;2023-05-02T06:33:33;15.95;;;3.00;;
54269;SDS011;40181;51.560;13.000;2023-05-02T06:36:06;9.87;;;2.87;;
54269;SDS011;40181;51.560;13.000;2023-05-02T06:38:35;3.15;;;2.33;;
54269;SDS011;40181;51.560;13.000;2023-05-02T06:41:04;2.20;;;1.70;;
54269;SDS011;40181;51.560;13.000;2023-05-02T06:43:33;3.83;;;2.30;;
54269;SDS011;40181;51.560;13.000;2023-05-02T06:46:03;4.80;;;2.70;;
54269;SDS011;40181;51.560;13.000;2023-05-02T06:48:32;6.68;;;3.20;;
54269;SDS011;40181;51.560;13.000;2023-05-02T06:51:02;5.28;;;2.90;;
54269;SDS011;40181;51.560;13.000;2023-05-02T06:53:35;4.25;;;2.70;;
54269;SDS011;40181;51.560;13.000;2023-05-02T06:56:04;3.60;;;2.40;;
54269;SDS011;40181;51.560;13.000;2023-05-02T06:58:33;4.50;;;2.43;;
54269;SDS011;40181;51.560;13.000;2023-05-02T07:01:02;3.35;;;2.15;;
54269;SDS011;40181;51.560;13.000;2023-05-02T07:03:32;3.35;;;2.03;;
54269;SDS011;40181;51.560;13.000;2023-05-02T07:06:01;3.35;;;1.95;;
54269;SDS011;40181;51.560;13.000;2023-05-02T07:08:32;3.95;;;1.63;;
54269;SDS011;40181;51.560;13.000;2023-05-02T07:11:01;2.85;;;2.00;;
54269;SDS011;40181;51.560;13.000;2023-05-02T07:13:31;3.80;;;1.85;;
54269;SDS011;40181;51.560;13.000;2023-05-02T07:16:00;2.92;;;1.75;;
54269;SDS011;40181;51.560;13.000;2023-05-02T07:18:29;2.67;;;1.95;;
54269;SDS011;40181;51.560;13.000;2023-05-02T07:20:58;2.75;;;1.70;;
54269;SDS011;40181;51.560;13.000;2023-05-02T07:23:27;2.22;;;1.55;;
54269;SDS011;40181;51.560;13.000;2023-05-02T07:25:59;2.05;;;1.70;;
54269;SDS011;40181;51.560;13.000;2023-05-02T07:28:29;2.80;;;1.70;;
54269;SDS011;40181;51.560;13.000;2023-05-02T07:30:58;1.60;;;1.20;;
54269;SDS011;40181;51.560;13.000;2023-05-02T07:33:27;1.50;;;1.10;;
54269;SDS011;40181;51.560;13.000;2023-05-02T07:35:56;1.60;;;1.15;;
54269;SDS011;40181;51.560;13.000;2023-05-02T07:38:26;1.88;;;1.30;;
54269;SDS011;40181;51.560;13.000;2023-05-02T07:40:59;2.20;;;1.47;;
54269;SDS011;40181;51.560;13.000;2023-05-02T07:43:28;2.80;;;1.55;;
54269;SDS011;40181;51.560;13.000;2023-05-02T07:45:57;3.90;;;1.98;;
54269;SDS011;40181;51.560;13.000;2023-05-02T07:48:32;3.20;;;1.80;;
54269;SDS011;40181;51.560;13.000;2023-05-02T07:51:04;5.65;;;3.30;;
54269;SDS011;40181;51.560;13.000;2023-05-02T07:53:34;3.97;;;2.55;;
54269;SDS011;40181;51.560;13.000;2023-05-02T07:56:06;4.10;;;2.60;;
54269;SDS011;40181;51.560;13.000;2023-05-02T07:58:36;4.95;;;3.42;;
54269;SDS011;40181;51.560;13.000;2023-05-02T08:01:05;5.35;;;3.53;;
54269;SDS011;40181;51.560;13.000;2023-05-02T08:03:35;3.50;;;2.55;;
54269;SDS011;40181;51.560;13.000;2023-05-02T08:06:04;3.95;;;2.53;;
54269;SDS011;40181;51.560;13.000;2023-05-02T08:08:34;3.03;;;2.28;;
54269;SDS011;40181;51.560;13.000;2023-05-02T08:11:06;7.80;;;2.28;;
54269;SDS011;40181;51.560;13.000;2023-05-02T08:13:35;4.60;;;2.83;;
54269;SDS011;40181;51.560;13.000;2023-05-02T08:16:04;4.63;;;3.10;;
54269;SDS011;40181;51.560;13.000;2023-05-02T08:18:33;3.35;;;2.42;;
54269;SDS011;40181;51.560;13.000;2023-05-02T08:21:03;4.80;;;3.33;;
54269;SDS011;40181;51.560;13.000;2023-05-02T08:23:32;3.33;;;2.40;;
54269;SDS011;40181;51.560;13.000;2023-05-02T08:26:02;3.15;;;2.42;;
54269;SDS011;40181;51.560;13.000;2023-05-02T08:28:33;5.93;;;2.45;;
54269;SDS011;40181;51.560;13.000;2023-05-02T08:31:02;6.80;;;3.22;;
54269;SDS011;40181;51.560;13.000;2023-05-02T08:33:32;5.15;;;3.80;;
54269;SDS011;40181;51.560;13.000;2023-05-02T08:36:08;9.20;;;3.60;;
54269;SDS011;40181;51.560;13.000;2023-05-02T08:38:38;7.05;;;4.55;;
54269;SDS011;40181;51.560;13.000;2023-05-02T08:41:12;6.35;;;4.45;;
54269;SDS011;40181;51.560;13.000;2023-05-02T08:43:42;6.63;;;3.83;;
54269;SDS011;40181;51.560;13.000;2023-05-02T08:46:13;6.43;;;4.43;;
54269;SDS011;40181;51.560;13.000;2023-05-02T08:48:44;5.57;;;4.43;;
54269;SDS011;40181;51.560;13.000;2023-05-02T08:51:15;5.90;;;4.97;;
54269;SDS011;40181;51.560;13.000;2023-05-02T08:53:45;8.80;;;5.68;;
54269;SDS011;40181;51.560;13.000;2023-05-02T08:56:17;8.90;;;5.72;;
54269;SDS011;40181;51.560;13.000;2023-05-02T08:58:46;5.72;;;4.38;;
54269;SDS011;40181;51.560;13.000;2023-05-02T09:01:16;7.22;;;6.25;;
54269;SDS011;40181;51.560;13.000;2023-05-02T09:03:49;5.85;;;4.15;;
54269;SDS011;40181;51.560;13.000;2023-05-02T09:08:50;12.73;;;7.65;;
54269;SDS011;40181;51.560;13.000;2023-05-02T09:11:22;7.25;;;5.40;;
54269;SDS011;40181;51.560;13.000;2023-05-02T09:13:51;11.55;;;7.75;;
54269;SDS011;40181;51.560;13.000;2023-05-02T09:16:24;6.40;;;5.57;;
54269;SDS011;40181;51.560;13.000;2023-05-02T09:18:55;11.77;;;8.68;;
54269;SDS011;40181;51.560;13.000;2023-05-02T09:21:26;8.27;;;5.53;;
54269;SDS011;40181;51.560;13.000;2023-05-02T09:24:13;8.43;;;6.05;;
54269;SDS011;40181;51.560;13.000;2023-05-02T09:26:55;7.65;;;5.85;;
54269;SDS011;40181;51.560;13.000;2023-05-02T09:29:26;8.98;;;6.70;;
54269;SDS011;40181;51.560;13.000;2023-05-02T09:31:59;7.53;;;6.38;;
54269;SDS011;40181;51.560;13.000;2023-05-02T09:34:29;8.40;;;6.63;;
54269;SDS011;40181;51.560;13.000;2023-05-02T09:36:58;7.93;;;6.72;;
54269;SDS011;40181;51.560;13.000;2023-05-02T09:39:29;23.70;;;6.47;;
54269;SDS011;40181;51.560;13.000;2023-05-02T09:42:01;7.25;;;5.53;;
54269;SDS011;40181;51.560;13.000;2023-05-02T09:44:35;7.97;;;4.90;;
54269;SDS011;40181;51.560;13.000;2023-05-02T09:47:05;10.27;;;5.35;;
54269;SDS011;40181;51.560;13.000;2023-05-02T09:49:39;8.73;;;5.25;;
54269;SDS011;40181;51.560;13.000;2023-05-02T09:52:09;6.95;;;5.32;;
54269;SDS011;40181;51.560;13.000;2023-05-02T09:54:40;8.35;;;6.40;;
54269;SDS011;40181;51.560;13.000;2023-05-02T09:57:13;14.15;;;7.25;;
54269;SDS011;40181;51.560;13.000;2023-05-02T09:59:51;7.32;;;5.93;;
54269;SDS011;40181;51.560;13.000;2023-05-02T10:02:22;10.00;;;6.55;;
54269;SDS011;40181;51.560;13.000;2023-05-02T10:07:24;10.55;;;6.68;;
54269;SDS011;40181;51.560;13.000;2023-05-02T10:09:53;9.57;;;6.05;;
54269;SDS011;40181;51.560;13.000;2023-05-02T10:12:31;9.13;;;7.05;;
54269;SDS011;40181;51.560;13.000;2023-05-02T10:15:02;8.55;;;7.15;;
54269;SDS011;40181;51.560;13.000;2023-05-02T10:17:37;7.68;;;5.57;;
54269;SDS011;40181;51.560;13.000;2023-05-02T10:20:08;11.23;;;5.18;;
54269;SDS011;40181;51.560;13.000;2023-05-02T10:22:45;8.02;;;5.60;;
54269;SDS011;40181;51.560;13.000;2023-05-02T10:25:17;6.82;;;5.85;;
54269;SDS011;40181;51.560;13.000;2023-05-02T10:27:49;8.98;;;5.50;;
54269;SDS011;40181;51.560;13.000;2023-05-02T10:30:19;6.50;;;5.20;;
54269;SDS011;40181;51.560;13.000;2023-05-02T10:32:48;7.60;;;5.57;;
54269;SDS011;40181;51.560;13.000;2023-05-02T10:35:20;8.57;;;5.18;;
54269;SDS011;40181;51.560;13.000;2023-05-02T10:37:50;8.23;;;6.47;;
54269;SDS011;40181;51.560;13.000;2023-05-02T10:40:20;5.53;;;4.40;;
54269;SDS011;40181;51.560;13.000;2023-05-02T10:42:52;8.18;;;5.10;;
54269;SDS011;40181;51.560;13.000;2023-05-02T10:45:29;6.32;;;4.80;;
54269;SDS011;40181;51.560;13.000;2023-05-02T10:48:12;7.13;;;5.60;;
54269;SDS011;40181;51.560;13.000;2023-05-02T10:50:43;8.18;;;4.95;;
54269;SDS011;40181;51.560;13.000;2023-05-02T10:53:25;7.60;;;4.00;;
54269;SDS011;40181;51.560;13.000;2023-05-02T10:56:12;5.72;;;4.53;;
54269;SDS011;40181;51.560;13.000;2023-05-02T10:58:48;9.38;;;5.28;;
54269;SDS011;40181;51.560;13.000;2023-05-02T11:01:30;11.80;;;4.90;;
54269;SDS011;40181;51.560;13.000;2023-05-02T11:04:02;4.55;;;3.83;;
54269;SDS011;40181;51.560;13.000;2023-05-02T11:06:33;4.82;;;4.30;;
54269;SDS011;40181;51.560;13.000;2023-05-02T11:12:01;4.47;;;2.97;;
54269;SDS011;40181;51.560;13.000;2023-05-02T11:14:48;9.73;;;5.45;;
54269;SDS011;40181;51.560;13.000;2023-05-02T11:17:17;5.03;;;4.13;;
54269;SDS011;40181;51.560;13.000;2023-05-02T11:22:57;4.97;;;3.30;;
54269;SDS011;40181;51.560;13.000;2023-05-02T11:25:50;6.50;;;2.78;;
54269;SDS011;40181;51.560;13.000;2023-05-02T11:34:40;5.18;;;3.83;;
54269;SDS011;40181;51.560;13.000;2023-05-02T11:37:10;4.15;;;3.33;;
54269;SDS011;40181;51.560;13.000;2023-05-02T11:39:41;4.72;;;2.55;;
54269;SDS011;40181;51.560;13.000;2023-05-02T11:42:24;3.05;;;2.50;;
54269;SDS011;40181;51.560;13.000;2023-05-02T11:44:56;8.43;;;4.07;;
54269;SDS011;40181;51.560;13.000;2023-05-02T11:50:02;3.72;;;2.58;;
54269;SDS011;40181;51.560;13.000;2023-05-02T11:52:35;2.90;;;2.10;;
54269;SDS011;40181;51.560;13.000;2023-05-02T11:55:05;2.88;;;2.20;;
54269;SDS011;40181;51.560;13.000;2023-05-02T11:57:37;4.03;;;2.90;;
54269;SDS011;40181;51.560;13.000;2023-05-02T12:00:08;3.92;;;2.53;;
54269;SDS011;40181;51.560;13.000;2023-05-02T12:02:42;3.42;;;2.42;;
54269;SDS011;40181;51.560;13.000;2023-05-02T12:05:13;3.88;;;2.35;;
54269;SDS011;40181;51.560;13.000;2023-05-02T12:07:49;3.97;;;2.67;;
54269;SDS011;40181;51.560;13.000;2023-05-02T12:10:18;2.50;;;2.05;;
54269;SDS011;40181;51.560;13.000;2023-05-02T12:12:47;2.67;;;1.90;;
54269;SDS011;40181;51.560;13.000;2023-05-02T12:15:17;3.67;;;2.10;;
54269;SDS011;40181;51.560;13.000;2023-05-02T12:17:49;2.30;;;1.48;;
54269;SDS011;40181;51.560;13.000;2023-05-02T12:20:18;2.65;;;1.70;;
54269;SDS011;40181;51.560;13.000;2023-05-02T12:22:47;1.35;;;1.23;;
54269;SDS011;40181;51.560;13.000;2023-05-02T12:25:17;1.70;;;1.50;;
54269;SDS011;40181;51.560;13.000;2023-05-02T12:27:59;3.92;;;2.60;;
54269;SDS011;40181;51.560;13.000;2023-05-02T12:30:28;3.35;;;2.08;;
54269;SDS011;40181;51.560;13.000;2023-05-02T12:33:01;3.72;;;1.73;;
54269;SDS011;40181;51.560;13.000;2023-05-02T12:35:31;3.58;;;2.40;;
54269;SDS011;40181;51.560;13.000;2023-05-02T12:38:07;5.75;;;2.97;;
54269;SDS011;40181;51.560;13.000;2023-05-02T12:40:45;4.07;;;2.75;;
54269;SDS011;40181;51.560;13.000;2023-05-02T12:43:16;5.30;;;2.47;;
54269;SDS011;40181;51.560;13.000;2023-05-02T12:45:46;4.13;;;2.70;;
54269;SDS011;40181;51.560;13.000;2023-05-02T12:48:21;4.72;;;2.70;;
54269;SDS011;40181;51.560;13.000;2023-05-02T12:50:52;5.95;;;2.90;;
54269;SDS011;40181;51.560;13.000;2023-05-02T12:53:37;5.28;;;2.50;;
54269;SDS011;40181;51.560;13.000;2023-05-02T12:56:08;3.97;;;2.85;;
54269;SDS011;40181;51.560;13.000;2023-05-02T12:58:44;4.82;;;2.25;;
54269;SDS011;40181;51.560;13.000;2023-05-02T13:01:15;1.75;;;1.48;;
54269;SDS011;40181;51.560;13.000;2023-05-02T13:03:49;3.45;;;2.22;;
54269;SDS011;40181;51.560;13.000;2023-05-02T13:06:18;4.30;;;2.90;;
54269;SDS011;40181;51.560;13.000;2023-05-02T13:08:47;2.72;;;2.10;;
54269;SDS011;40181;51.560;13.000;2023-05-02T13:11:16;2.95;;;1.90;;
54269;SDS011;40181;51.560;13.000;2023-05-02T13:13:46;2.08;;;1.48;;
54269;SDS011;40181;51.560;13.000;2023-05-02T13:16:15;4.70;;;2.58;;
54269;SDS011;40181;51.560;13.000;2023-05-02T13:18:46;2.75;;;2.10;;
54269;SDS011;40181;51.560;13.000;2023-05-02T13:21:15;3.72;;;2.88;;
54269;SDS011;40181;51.560;13.000;2023-05-02T13:23:45;2.95;;;1.98;;
54269;SDS011;40181;51.560;13.000;2023-05-02T13:26:16;5.93;;;1.80;;
54269;SDS011;40181;51.560;13.000;2023-05-02T13:28:45;3.03;;;2.10;;
54269;SDS011;40181;51.560;13.000;2023-05-02T13:31:14;2.58;;;1.80;;
54269;SDS011;40181;51.560;13.000;2023-05-02T13:33:43;4.00;;;1.55;;
54269;SDS011;40181;51.560;13.000;2023-05-02T13:36:14;1.42;;;1.10;;
54269;SDS011;40181;51.560;13.000;2023-05-02T13:38:44;2.25;;;1.63;;
54269;SDS011;40181;51.560;13.000;2023-05-02T13:41:13;2.50;;;1.45;;
54269;SDS011;40181;51.560;13.000;2023-05-02T13:43:43;1.75;;;1.38;;
54269;SDS011;40181;51.560;13.000;2023-05-02T13:46:12;2.92;;;1.48;;
54269;SDS011;40181;51.560;13.000;2023-05-02T13:48:41;2.28;;;1.55;;
54269;SDS011;40181;51.560;13.000;2023-05-02T13:51:12;2.45;;;1.60;;
54269;SDS011;40181;51.560;13.000;2023-05-02T13:53:41;5.28;;;2.17;;
54269;SDS011;40181;51.560;13.000;2023-05-02T13:56:10;3.63;;;1.95;;
54269;SDS011;40181;51.560;13.000;2023-05-02T13:58:40;5.53;;;2.50;;
54269;SDS011;40181;51.560;13.000;2023-05-02T14:01:09;4.53;;;1.85;;
54269;SDS011;40181;51.560;13.000;2023-05-02T14:03:38;3.88;;;1.65;;
54269;SDS011;40181;51.560;13.000;2023-05-02T14:06:07;3.65;;;1.95;;
54269;SDS011;40181;51.560;13.000;2023-05-02T14:08:39;1.88;;;1.10;;
54269;SDS011;40181;51.560;13.000;2023-05-02T14:11:09;1.88;;;1.52;;
54269;SDS011;40181;51.560;13.000;2023-05-02T14:13:38;1.33;;;1.02;;
54269;SDS011;40181;51.560;13.000;2023-05-02T14:16:07;7.63;;;1.98;;
54269;SDS011;40181;51.560;13.000;2023-05-02T14:18:36;5.68;;;1.98;;
54269;SDS011;40181;51.560;13.000;2023-05-02T14:21:05;2.70;;;1.23;;
54269;SDS011;40181;51.560;13.000;2023-05-02T14:23:35;2.08;;;1.30;;
54269;SDS011;40181;51.560;13.000;2023-05-02T14:26:06;2.20;;;1.30;;
54269;SDS011;40181;51.560;13.000;2023-05-02T14:28:36;3.20;;;1.90;;
54269;SDS011;40181;51.560;13.000;2023-05-02T14:31:06;2.40;;;1.20;;
54269;SDS011;40181;51.560;13.000;2023-05-02T14:33:36;1.33;;;1.00;;
54269;SDS011;40181;51.560;13.000;2023-05-02T14:36:08;2.28;;;1.35;;
54269;SDS011;40181;51.560;13.000;2023-05-02T14:38:40;1.98;;;1.33;;
54269;SDS011;40181;51.560;13.000;2023-05-02T14:41:09;7.35;;;1.58;;
54269;SDS011;40181;51.560;13.000;2023-05-02T14:43:38;3.65;;;1.50;;
54269;SDS011;40181;51.560;13.000;2023-05-02T14:46:07;4.15;;;1.50;;
54269;SDS011;40181;51.560;13.000;2023-05-02T14:48:36;2.45;;;1.30;;
54269;SDS011;40181;51.560;13.000;2023-05-02T14:51:05;3.00;;;1.23;;
54269;SDS011;40181;51.560;13.000;2023-05-02T14:53:34;3.05;;;1.10;;
54269;SDS011;40181;51.560;13.000;2023-05-02T14:56:10;3.08;;;1.55;;
54269;SDS011;40181;51.560;13.000;2023-05-02T14:58:42;2.00;;;1.00;;
54269;SDS011;40181;51.560;13.000;2023-05-02T15:01:14;2.10;;;1.20;;
54269;SDS011;40181;51.560;13.000;2023-05-02T15:03:44;4.60;;;1.35;;
54269;SDS011;40181;51.560;13.000;2023-05-02T15:06:13;2.00;;;1.02;;
54269;SDS011;40181;51.560;13.000;2023-05-02T15:08:43;1.83;;;1.17;;
54269;SDS011;40181;51.560;13.000;2023-05-02T15:11:14;4.25;;;0.85;;
54269;SDS011;40181;51.560;13.000;2023-05-02T15:13:43;3.90;;;2.10;;
54269;SDS011;40181;51.560;13.000;2023-05-02T15:16:12;3.05;;;1.27;;
54269;SDS011;40181;51.560;13.000;2023-05-02T15:18:42;1.70;;;1.30;;
54269;SDS011;40181;51.560;13.000;2023-05-02T15:21:11;6.32;;;1.40;;